• Join FlightAware (Why Join?)
  • Login
  • US Flag 
11:25PM EDT


 

Airport Tracker/Info


-or-


 

Live Flight TrackerFlight Track Log ✈ XOJ549 ✈ 07-May-2013 ✈ KFSD - KVNY

Flight Track Log - Related Links

Times and Time Zones

All times are in EDT time to prevent confusion due to time zone crossing. See the XOJ549 flight status page for this flight to view local times or setup timezone preferences in your user account.

Time Position Orientation Groundspeed Altitude Reporting Facility
EDT Latitude Longitude Course Direction KTS MPH feet Rate Location/Type
03:39PM 43.5300 -96.8292 234° Southwest 228 262 5,200  Level Minneapolis Center
03:40PM 43.4719 -96.9297 232° Southwest 257 296 11,000 4,740 Climbing Minneapolis Center
03:41PM 43.4175 -97.0283 233° Southwest 303 349 15,100 2,940 Climbing Minneapolis Center
03:42PM 43.3578 -97.1333 232° Southwest 344 396 17,100 900 Climbing Minneapolis Center
03:43PM 43.2950 -97.2503 234° Southwest 375 432 17,000 1,980 Descending Minneapolis Center
03:44PM 43.2855 -97.2410 231° Southwest  Level FlightAware Approximate
03:44PM 43.2433 -97.4036 245° Southwest 366 421 21,200  Level Minneapolis Center
03:45PM 43.1992 -97.5278 244° Southwest 363 418 23,700 2,520 Climbing Minneapolis Center
03:46PM 43.1547 -97.6581 245° Southwest 374 430 26,400 2,400 Climbing Minneapolis Center
03:47PM 43.1075 -97.7919 244° Southwest 388 447 28,700 2,100 Climbing Minneapolis Center
03:48PM 43.0592 -97.9286 244° Southwest 396 456 30,800 1,980 Climbing Minneapolis Center
03:49PM 43.0100 -98.0658 244° Southwest 402 463 32,900 1,980 Climbing Minneapolis Center
03:50PM 42.9614 -98.2031 244° Southwest 401 461 34,900 1,740 Climbing Minneapolis Center
03:51PM 42.9017 -98.3689 244° Southwest 406 467 36,600 1,260 Climbing Minneapolis Center
03:52PM 42.8569 -98.4919 244° Southwest 416 479 37,600 1,260 Climbing Minneapolis Center
03:53PM 42.7944 -98.6669 244° Southwest 426 490 39,200 1,260 Climbing Minneapolis Center
03:54PM 42.7411 -98.8122 243° Southwest 429 494 40,200 960 Climbing Minneapolis Center
03:56PM 42.6883 -98.9578 244° Southwest 430 495 41,300 1,020 Climbing Minneapolis Center
03:57PM 42.6347 -99.1025 243° Southwest 430 495 42,400 780 Climbing Minneapolis Center
03:58PM 42.5811 -99.2481 243° Southwest 430 495 43,000 240 Climbing Minneapolis Center
03:59PM 42.5258 -99.3944 243° Southwest 435 501 43,000  Level Minneapolis Center
03:59PM 42.4906 -99.4864 243° Southwest 449 517 43,000  Level Denver Center
04:00PM 42.4331 -99.6425 244° Southwest 462 532 43,000  Level Denver Center
04:01PM 42.3989 -99.7336 243° Southwest 460 529 43,000  Level Minneapolis Center
04:01PM 42.3733 -99.7978 242° Southwest 458 527 43,000  Level Denver Center
04:02PM 42.3183 -99.9447 243° Southwest 459 528 43,000  Level Denver Center
04:03PM 42.2533 -100.1128 242° Southwest 454 522 43,000  Level Denver Center
04:04PM 42.1989 -100.2561 243° Southwest 450 518 43,000  Level Denver Center
04:05PM 42.1336 -100.4225 242° Southwest 451 519 43,000  Level Denver Center
04:06PM 42.0792 -100.5631 242° Southwest 447 514 43,000  Level Denver Center
04:07PM 42.0142 -100.7292 242° Southwest 449 517 43,000  Level Denver Center
04:08PM 41.9586 -100.8703 242° Southwest 448 516 43,000  Level Denver Center
04:09PM 41.9044 -101.0106 243° Southwest 444 511 43,000  Level Denver Center
04:10PM 41.8386 -101.1761 242° Southwest 450 518 43,000  Level Denver Center
04:11PM 41.7819 -101.3178 242° Southwest 451 519 43,000  Level Denver Center
04:12PM 41.7172 -101.4811 242° Southwest 448 516 43,000 300 Level Denver Center
04:14PM 41.6564 -101.6753 247° West 444 511 43,800 480 Climbing Denver Center
04:15PM 41.6231 -101.8250 253° West 440 506 44,200 420 Climbing Denver Center
04:16PM 41.5908 -101.9731 254° West 437 503 44,800 300 Climbing Denver Center
04:17PM 41.5456 -102.1731 253° West 440 506 45,000 60 Climbing Denver Center
04:18PM 41.5033 -102.3519 253° West 451 519 45,000  Level Denver Center
04:19PM 41.4683 -102.5067 253° West 454 522 45,000  Level Denver Center
04:20PM 41.4294 -102.6711 253° West 457 526 45,000  Level Denver Center
04:21PM 41.3931 -102.8269 253° West 459 528 45,000  Level Denver Center
04:22PM 41.3506 -103.0094 253° West 463 533 45,000  Level Denver Center
04:23PM 41.3142 -103.1647 253° West 460 529 45,000  Level Denver Center
04:24PM 41.2714 -103.3439 252° West 455 524 45,000  Level Denver Center
04:25PM 41.2342 -103.4958 252° West 451 519 45,000  Level Denver Center
04:26PM 41.1981 -103.6475 252° West 450 518 45,000  Level Denver Center
04:27PM 41.1556 -103.8239 252° West 448 516 45,000  Level Denver Center
04:28PM 41.1194 -103.9742 252° West 447 514 45,000  Level Denver Center
04:29PM 41.0761 -104.1492 252° West 446 513 45,000  Level Denver Center
04:30PM 41.0392 -104.2989 252° West 445 512 45,000  Level Denver Center
04:31PM 40.9961 -104.4719 252° West 448 516 45,000  Level Denver Center
04:32PM 40.9569 -104.6281 252° West 446 513 45,000  Level Denver Center
04:33PM 40.9167 -104.7822 251° West 443 510 45,000  Level Denver Center
04:35PM 40.8703 -104.9658 252° West 448 516 45,000  Level Denver Center
04:36PM 40.8303 -105.1231 251° West 448 516 45,000  Level Denver Center
04:37PM 40.7897 -105.2803 251° West 450 518 45,000  Level Denver Center
04:38PM 40.7553 -105.4097 251° West 448 516 45,000  Level Denver Center
04:39PM 40.7008 -105.6208 251° West 452 520 45,000  Level Denver Center
04:40PM 40.6592 -105.7778 251° West 452 520 45,000  Level Denver Center
04:41PM 40.6181 -105.9353 251° West 452 520 45,000  Level Denver Center
04:42PM 40.5753 -106.0925 250° West 454 522 45,000  Level Denver Center
04:43PM 40.5342 -106.2475 251° West 453 521 45,000  Level Denver Center
04:44PM 40.4875 -106.4228 251° West 455 524 45,000  Level Denver Center
04:45PM 40.4422 -106.5803 249° West 454 522 45,000  Level Denver Center
04:46PM 40.4006 -106.7364 251° West 454 522 45,000  Level Denver Center
04:47PM 40.3578 -106.8947 251° West 454 522 45,000  Level Denver Center
04:48PM 40.3161 -107.0436 250° West 455 524 45,000  Level Denver Center
04:49PM 40.2678 -107.2167 250° West 454 522 45,000  Level Denver Center
04:50PM 40.2269 -107.3653 250° West 454 522 45,000  Level Denver Center
04:51PM 40.1783 -107.5375 250° West 452 520 45,000  Level Denver Center
04:52PM 40.1358 -107.6850 249° West 453 521 45,000  Level Denver Center
04:53PM 40.0869 -107.8575 250° West 454 522 45,000  Level Denver Center
04:54PM 40.0325 -107.9969 243° Southwest 452 520 45,000  Level Denver Center
04:55PM 39.9647 -108.1272 236° Southwest 453 521 45,000  Level Denver Center
04:56PM 39.8861 -108.2808 236° Southwest 455 524 45,000  Level Denver Center
04:57PM 39.8178 -108.4128 236° Southwest 463 533 45,000  Level Denver Center
04:58PM 39.7628 -108.5214 237° Southwest 452 520 45,000  Level Denver Center
04:59PM 39.6656 -108.7081 236° Southwest 461 531 45,000  Level Denver Center
05:00PM 39.5969 -108.8397 236° Southwest 460 529 45,000  Level Denver Center
05:01PM 39.5178 -108.9900 236° Southwest 452 520 45,000  Level Denver Center
05:02PM 39.4494 -109.1200 236° Southwest 456 525 45,000  Level Denver Center
05:03PM 39.3806 -109.2503 236° Southwest 459 528 45,000  Level Denver Center
05:04PM 39.3586 -109.2947 237° Southwest 459 528 45,000  Level Salt Lake Center
05:05PM 39.2778 -109.4464 235° Southwest 461 531 45,000  Level Salt Lake Center
05:06PM 39.2086 -109.5767 236° Southwest 459 528 45,000  Level Salt Lake Center
05:06PM 39.1506 -109.6856 236° Southwest 461 531 45,000  Level Denver Center
05:08PM 39.0814 -109.8114 235° Southwest 453 521 45,000  Level Denver Center
05:09PM 39.0244 -109.9164 235° Southwest 449 517 45,000  Level Denver Center
05:09PM 38.9919 -109.9803 237° Southwest 446 513 45,000  Level Salt Lake Center
05:10PM 38.9142 -110.1278 236° Southwest 445 512 45,000  Level Salt Lake Center
05:11PM 38.8672 -110.2083 233° Southwest 444 511 45,000  Level Denver Center
05:12PM 38.7889 -110.3525 235° Southwest 442 509 45,000  Level Denver Center
05:13PM 38.6989 -110.5150 235° Southwest 439 505 45,000  Level Denver Center
05:14PM 38.6339 -110.6397 236° Southwest 440 506 45,000  Level Salt Lake Center
05:15PM 38.5539 -110.7808 234° Southwest 439 505 45,000  Level Salt Lake Center
05:16PM 38.4864 -110.9036 235° Southwest 441 507 45,000  Level Salt Lake Center
05:17PM 38.4158 -111.0300 235° Southwest 438 504 45,000  Level Salt Lake Center
05:18PM 38.3453 -111.1553 234° Southwest 437 503 45,000  Level Salt Lake Center
05:19PM 38.2764 -111.2814 235° Southwest 434 499 45,000  Level Salt Lake Center
05:20PM 38.1906 -111.4303 234° Southwest 435 501 45,000  Level Salt Lake Center
05:21PM 38.1208 -111.5542 234° Southwest 433 498 45,000  Level Salt Lake Center
05:22PM 38.0483 -111.6781 233° Southwest 437 503 45,000  Level Salt Lake Center
05:23PM 37.9764 -111.8022 234° Southwest 438 504 45,000  Level Salt Lake Center
05:24PM 37.9050 -111.9278 234° Southwest 438 504 45,000  Level Salt Lake Center
05:25PM 37.8336 -112.0528 234° Southwest 439 505 45,000  Level Salt Lake Center
05:26PM 37.7617 -112.1775 234° Southwest 438 504 45,000  Level Salt Lake Center
05:27PM 37.6744 -112.3264 234° Southwest 439 505 45,000  Level Salt Lake Center
05:28PM 37.5975 -112.4464 231° Southwest 438 504 45,000  Level Salt Lake Center
05:29PM 37.5194 -112.5681 231° Southwest 441 507 45,000  Level Salt Lake Center
05:30PM 37.4403 -112.6897 231° Southwest 442 509 45,000  Level Salt Lake Center
05:31PM 37.3583 -112.8111 230° Southwest 445 512 45,000  Level Salt Lake Center
05:32PM 37.2783 -112.9325 230° Southwest 446 513 45,000  Level Salt Lake Center
05:33PM 37.1997 -113.0519 230° Southwest 443 510 45,000  Level Salt Lake Center
05:35PM 37.1194 -113.1714 230° Southwest 445 512 45,000  Level Salt Lake Center
05:36PM 37.0400 -113.2903 230° Southwest 445 512 45,000  Level Salt Lake Center
05:37PM 36.9600 -113.4103 230° Southwest 447 514 45,000  Level Salt Lake Center
05:38PM 36.8625 -113.5539 230° Southwest 451 519 45,000  Level Salt Lake Center
05:39PM 36.7814 -113.6717 229° Southwest 448 516 45,000  Level Salt Lake Center
05:40PM 36.7003 -113.7897 229° Southwest 449 517 45,000  Level Salt Lake Center
05:41PM 36.6028 -113.9308 229° Southwest 448 516 45,000  Level Los Angeles Center
05:42PM 36.5217 -114.0486 229° Southwest 448 516 45,000  Level Los Angeles Center
05:43PM 36.4425 -114.1642 230° Southwest 444 511 45,000  Level Los Angeles Center
05:44PM 36.3469 -114.3022 229° Southwest 440 506 45,000 -240 Level Los Angeles Center
05:46PM 36.1858 -114.5350 229° Southwest 443 510 44,300 -660 Descending Los Angeles Center
05:47PM 36.1039 -114.6511 229° Southwest 445 512 43,100 -1,200 Descending Los Angeles Center
05:48PM 36.0219 -114.7656 229° Southwest 444 511 41,900 -1,200 Descending Los Angeles Center
05:49PM 35.9417 -114.8792 229° Southwest 438 504 40,700 -1,200 Descending Los Angeles Center
05:50PM 35.8622 -114.9931 229° Southwest 436 502 39,500 -1,260 Descending Los Angeles Center
05:51PM 35.7825 -115.1044 229° Southwest 431 496 38,200 -1,320 Descending Los Angeles Center
05:52PM 35.6861 -115.2408 229° Southwest 437 503 36,800 -1,260 Descending Los Angeles Center
05:53PM 35.6056 -115.3542 229° Southwest 438 504 35,600 -1,200 Descending Los Angeles Center
05:54PM 35.5253 -115.4653 228° Southwest 433 498 34,400 -1,260 Descending Los Angeles Center
05:55PM 35.4478 -115.5739 229° Southwest 425 489 33,100 -1,260 Descending Los Angeles Center
05:56PM 35.3692 -115.6822 228° Southwest 423 487 31,900 -1,200 Descending Los Angeles Center
05:57PM 35.2897 -115.7922 229° Southwest 429 494 30,700 -1,200 Descending Los Angeles Center
05:58PM 35.2103 -115.9014 228° Southwest 430 495 29,500 -1,200 Descending Los Angeles Center
05:59PM 35.1300 -116.0111 228° Southwest 432 497 28,300 -1,200 Descending Los Angeles Center
06:00PM 35.0544 -116.1144 228° Southwest 416 479 27,100 -1,380 Descending Los Angeles Center
06:01PM 34.9628 -116.2378 228° Southwest 409 471 25,500 -1,680 Descending Los Angeles Center
06:03PM 34.8869 -116.3403 228° Southwest 408 470 23,700 -1,260 Descending Los Angeles Center
06:04PM 34.8111 -116.4439 228° Southwest 408 470 22,900 -840 Descending Los Angeles Center
06:05PM 34.7875 -116.5739 258° West 393 452 22,000 -840 Descending Los Angeles Center
06:06PM 34.7733 -116.7064 263° West 394 453 21,200 -780 Descending Los Angeles Center
06:07PM 34.7611 -116.8336 263° West 386 444 20,400 -600 Descending Los Angeles Center
06:08PM 34.7475 -116.9608 263° West 381 438 20,000 -240 Descending Los Angeles Center
06:09PM 34.7322 -117.1131 263° West 378 435 20,000  Level Los Angeles Center
06:10PM 34.7192 -117.2386 263° West 377 434 20,000  Level Los Angeles Center
06:11PM 34.7064 -117.3661 263° West 379 436 20,000 -300 Level Los Angeles Center
06:12PM 34.6925 -117.4936 262° West 379 436 19,500 -1,140 Descending Los Angeles Center
06:13PM 34.6792 -117.6258 263° West 388 447 17,700 -1,860 Descending Los Angeles Center
06:14PM 34.6653 -117.7508 262° West 383 441 15,800 -1,860 Descending Los Angeles Center
06:15PM 34.6544 -117.8661 264° West 358 412 14,000 -1,980 Descending Los Angeles Center
06:16PM 34.6419 -117.9814 263° West 345 397 11,800 -1,140 Descending Los Angeles Center
06:18PM 34.5925 -118.2000 258° West  Level FlightAware Approximate
06:20PM 34.5667 -118.3667 180° South 222 255 8,000  Level Southern California TRACON
06:21PM 34.5500 -118.4333 253° West 235 270 8,000 -360 Level Southern California TRACON
06:22PM 34.5000 -118.4833 219° Southwest 219 252 7,300 -840 Descending Southern California TRACON
06:23PM 34.4667 -118.5167 220° Southwest 195 224 6,400 -900 Descending Southern California TRACON
06:24PM 34.4167 -118.5333 195° South 158 182 5,600 -900 Descending Southern California TRACON
06:25PM 34.2000 -118.4833 180° South  Level FlightAware Approximate
06:25PM 34.3667 -118.5167 165° South 169 194 4,700  Level Southern California TRACON
06:26PM 34.2098 -118.4900 180° South  Level Estimated
06:26PM 34.3167 -118.5167 180° South 165 190 3,800  Level Southern California TRACON
06:27PM 34.2833 -118.5000 158° South 136 157 3,000 -900 Descending Southern California TRACON
06:28PM 34.2500 -118.5000 180° South 134 154 2,000 -1,020 Descending Southern California TRACON
06:30PM 34.2098 -118.4900 180° South  Level Estimated
06:37PM 34.2098 -118.4900 180° South  Level Estimated